Time;durP1;ratioP1;P1;durP2;ratioP2;P2;SDS_P1;SDS_P2;PMS_P1;PMS_P2;Temp;Humidity;BMP_temperature;BMP_pressure;BME280_temperature;BME280_humidity;BME280_pressure;Samples;Min_cycle;Max_cycle;Signal;HPM_P1;HPM_P2
2021/06/11 00:00:28;;;;;;;7.07;5.22;;;;;;;;;;5047498;28;20017;-73
2021/06/11 00:02:53;;;;;;;8.00;5.50;;;;;;;;;;5056584;28;20021;-73
2021/06/11 00:05:20;;;;;;;7.50;5.43;;;;;;;;;;5047960;28;20017;-73
2021/06/11 00:07:45;;;;;;;7.38;5.15;;;;;;;;;;5051581;28;20165;-74
2021/06/11 00:10:11;;;;;;;6.63;5.23;;;;;;;;;;5047404;28;20118;-73
2021/06/11 00:12:37;;;;;;;6.28;5.18;;;;;;;;;;5050339;28;20663;-73
2021/06/11 00:15:03;;;;;;;6.60;5.05;;;;;;;;;;5053359;28;20113;-72
2021/06/11 00:17:28;;;;;;;6.22;5.30;;;;;;;;;;5057285;28;20202;-73
2021/06/11 00:19:53;;;;;;;7.63;5.10;;;;;;;;;;5055365;28;20021;-73
2021/06/11 00:22:18;;;;;;;7.65;5.35;;;;;;;;;;5051507;28;20928;-73
2021/06/11 00:24:43;;;;;;;6.63;5.57;;;;;;;;;;5053690;28;20020;-73
2021/06/11 00:27:08;;;;;;;6.18;5.05;;;;;;;;;;5050266;28;20028;-73
2021/06/11 00:29:34;;;;;;;7.97;5.10;;;;;;;;;;5048092;28;20049;-73
2021/06/11 00:31:59;;;;;;;7.03;5.15;;;;;;;;;;5050447;28;20282;-74
2021/06/11 00:34:24;;;;;;;7.60;5.63;;;;;;;;;;5055157;28;20049;-73
2021/06/11 00:36:49;;;;;;;6.63;5.63;;;;;;;;;;5054237;28;20033;-72
2021/06/11 00:39:14;;;;;;;7.25;5.07;;;;;;;;;;5052485;28;20093;-73
2021/06/11 00:41:40;;;;;;;7.07;5.20;;;;;;;;;;5044935;28;20025;-73
2021/06/11 00:44:06;;;;;;;7.50;5.60;;;;;;;;;;5051362;28;20056;-73
2021/06/11 00:46:31;;;;;;;10.23;5.40;;;;;;;;;;5047711;28;20128;-73
2021/06/11 00:48:56;;;;;;;6.38;5.30;;;;;;;;;;5047815;28;20464;-73
2021/06/11 00:51:22;;;;;;;6.47;5.57;;;;;;;;;;5048183;28;20017;-73
2021/06/11 00:53:48;;;;;;;9.13;5.57;;;;;;;;;;5059722;28;20283;-72
2021/06/11 00:56:13;;;;;;;7.90;5.68;;;;;;;;;;5047834;28;20013;-73
2021/06/11 00:58:38;;;;;;;6.95;5.30;;;;;;;;;;5054852;28;20016;-74
2021/06/11 01:01:03;;;;;;;6.30;5.22;;;;;;;;;;5046313;28;21792;-73
2021/06/11 01:03:30;;;;;;;7.25;5.50;;;;;;;;;;5051695;28;20384;-73
2021/06/11 01:05:55;;;;;;;9.20;5.88;;;;;;;;;;5052435;28;20488;-72
2021/06/11 01:08:21;;;;;;;6.40;5.70;;;;;;;;;;5057216;28;20036;-73
2021/06/11 01:10:47;;;;;;;6.32;5.43;;;;;;;;;;5063108;28;20016;-73
2021/06/11 01:13:13;;;;;;;6.40;5.43;;;;;;;;;;5029057;28;20040;-73
2021/06/11 01:15:38;;;;;;;8.70;5.95;;;;;;;;;;5047419;28;20116;-74
2021/06/11 01:18:04;;;;;;;7.65;6.10;;;;;;;;;;5046997;28;20116;-73
2021/06/11 01:20:29;;;;;;;7.30;5.80;;;;;;;;;;5043994;28;20028;-73
2021/06/11 01:23:00;;;;;;;7.07;5.57;;;;;;;;;;5057743;28;20033;-73
2021/06/11 01:25:28;;;;;;;7.15;5.57;;;;;;;;;;5052622;28;20036;-73
2021/06/11 01:27:53;;;;;;;8.35;6.05;;;;;;;;;;5050166;28;20033;-74
2021/06/11 01:30:24;;;;;;;7.78;5.72;;;;;;;;;;5061312;28;20017;-73
2021/06/11 01:32:51;;;;;;;8.48;5.57;;;;;;;;;;5055452;28;20029;-73
2021/06/11 01:35:19;;;;;;;6.97;5.88;;;;;;;;;;5045620;28;20432;-73
2021/06/11 01:37:44;;;;;;;7.65;5.70;;;;;;;;;;5061419;28;20021;-73
2021/06/11 01:40:11;;;;;;;6.57;5.53;;;;;;;;;;5056455;28;20388;-73
2021/06/11 01:42:37;;;;;;;7.22;5.80;;;;;;;;;;5057885;28;20129;-74
2021/06/11 01:45:07;;;;;;;8.70;6.95;;;;;;;;;;5048300;28;20039;-73
2021/06/11 01:47:34;;;;;;;8.18;6.13;;;;;;;;;;5057971;28;20127;-73
2021/06/11 01:49:59;;;;;;;7.88;5.88;;;;;;;;;;5050816;28;20043;-73
2021/06/11 01:52:26;;;;;;;7.28;5.60;;;;;;;;;;5055383;28;20025;-74
2021/06/11 01:54:51;;;;;;;8.13;6.25;;;;;;;;;;5055282;28;20322;-73
2021/06/11 01:57:17;;;;;;;7.25;6.15;;;;;;;;;;5054364;28;20068;-74
2021/06/11 01:59:43;;;;;;;9.48;6.25;;;;;;;;;;5049981;28;20025;-73
2021/06/11 02:02:09;;;;;;;7.50;5.97;;;;;;;;;;5054133;28;20483;-73
2021/06/11 02:04:34;;;;;;;9.48;6.30;;;;;;;;;;5056389;28;20063;-73
2021/06/11 02:07:00;;;;;;;9.95;6.47;;;;;;;;;;5057758;28;20032;-72
2021/06/11 02:09:26;;;;;;;8.25;6.60;;;;;;;;;;5053523;28;20133;-73
2021/06/11 02:11:52;;;;;;;8.27;5.95;;;;;;;;;;5050572;28;20075;-73
2021/06/11 02:14:18;;;;;;;9.07;6.53;;;;;;;;;;5054498;28;20505;-73
2021/06/11 02:16:44;;;;;;;7.10;5.35;;;;;;;;;;5053608;28;20063;-72
2021/06/11 02:19:10;;;;;;;7.82;5.82;;;;;;;;;;5054283;28;20081;-73
2021/06/11 02:21:35;;;;;;;9.10;5.78;;;;;;;;;;5055814;28;20021;-73
2021/06/11 02:24:00;;;;;;;8.65;5.63;;;;;;;;;;5061974;28;20100;-72
2021/06/11 02:26:27;;;;;;;6.95;5.82;;;;;;;;;;5049598;28;20115;-73
2021/06/11 02:28:52;;;;;;;6.80;5.07;;;;;;;;;;5050164;28;20044;-72
2021/06/11 02:31:18;;;;;;;7.50;5.28;;;;;;;;;;5052774;28;20471;-73
2021/06/11 02:33:44;;;;;;;8.02;6.00;;;;;;;;;;5064588;28;20132;-72
2021/06/11 02:36:09;;;;;;;7.68;6.28;;;;;;;;;;5053109;28;20104;-74
2021/06/11 02:38:35;;;;;;;7.35;5.80;;;;;;;;;;5055914;28;20382;-72
2021/06/11 02:41:00;;;;;;;9.07;6.05;;;;;;;;;;5049820;28;20044;-73
2021/06/11 02:43:25;;;;;;;10.40;5.90;;;;;;;;;;5043558;28;20575;-73
2021/06/11 02:46:17;;;;;;;7.55;5.95;;;;;;;;;;5060561;28;20028;-74
2021/06/11 02:48:51;;;;;;;7.18;5.78;;;;;;;;;;5041662;28;20029;-73
2021/06/11 02:51:23;;;;;;;7.63;5.65;;;;;;;;;;5049866;28;20247;-74
2021/06/11 02:53:49;;;;;;;7.47;6.03;;;;;;;;;;5051875;28;20166;-72
2021/06/11 02:56:27;;;;;;;7.03;5.63;;;;;;;;;;5048588;28;20071;-72
2021/06/11 02:58:56;;;;;;;6.88;5.80;;;;;;;;;;5051158;28;20017;-74
2021/06/11 03:01:21;;;;;;;7.30;5.70;;;;;;;;;;5049892;28;20017;-72
2021/06/11 03:03:48;;;;;;;8.27;6.07;;;;;;;;;;5052028;28;20035;-74
2021/06/11 03:06:14;;;;;;;7.72;5.88;;;;;;;;;;5059597;28;20147;-74
2021/06/11 03:08:42;;;;;;;7.47;6.40;;;;;;;;;;5062010;28;20434;-73
2021/06/11 03:11:15;;;;;;;7.32;6.00;;;;;;;;;;5048336;28;20075;-73
2021/06/11 03:13:41;;;;;;;7.78;6.25;;;;;;;;;;5048334;28;20341;-73
2021/06/11 03:16:07;;;;;;;8.38;6.35;;;;;;;;;;5056078;28;20032;-73
2021/06/11 03:18:34;;;;;;;7.55;5.97;;;;;;;;;;5048843;28;20031;-74
2021/06/11 03:21:22;;;;;;;8.85;5.78;;;;;;;;;;5048960;28;20029;-74
2021/06/11 03:23:51;;;;;;;7.88;6.05;;;;;;;;;;4967271;28;20461;-74
2021/06/11 03:26:20;;;;;;;7.47;6.20;;;;;;;;;;4966123;28;20045;-72
2021/06/11 03:28:49;;;;;;;7.53;5.72;;;;;;;;;;4966511;28;20043;-72
2021/06/11 03:31:19;;;;;;;8.50;6.03;;;;;;;;;;4964004;28;20034;-73
2021/06/11 03:33:45;;;;;;;8.23;6.15;;;;;;;;;;4966131;28;20057;-73
2021/06/11 03:36:19;;;;;;;7.78;6.25;;;;;;;;;;4965469;28;20038;-74
2021/06/11 03:38:50;;;;;;;11.43;6.88;;;;;;;;;;4966418;28;20082;-73
2021/06/11 03:41:16;;;;;;;8.43;6.95;;;;;;;;;;4963514;28;20516;-73
2021/06/11 03:43:41;;;;;;;7.90;6.30;;;;;;;;;;4967759;28;20030;-73
2021/06/11 03:46:07;;;;;;;8.05;6.32;;;;;;;;;;4966516;28;20535;-75
2021/06/11 03:48:33;;;;;;;9.18;5.93;;;;;;;;;;4947152;28;20593;-74
2021/06/11 03:50:59;;;;;;;9.65;6.72;;;;;;;;;;4967278;28;20114;-72
2021/06/11 03:53:26;;;;;;;7.28;5.93;;;;;;;;;;4967684;28;20042;-74
2021/06/11 03:55:55;;;;;;;12.45;6.65;;;;;;;;;;4967187;28;20031;-73
2021/06/11 03:58:31;;;;;;;7.72;6.05;;;;;;;;;;4966339;28;20031;-73
2021/06/11 04:00:58;;;;;;;9.30;6.00;;;;;;;;;;5011798;28;20045;-73
2021/06/11 04:03:23;;;;;;;9.55;5.85;;;;;;;;;;5053307;28;20016;-74
2021/06/11 04:05:51;;;;;;;7.65;6.20;;;;;;;;;;5055188;28;20388;-74
2021/06/11 04:08:17;;;;;;;10.02;6.30;;;;;;;;;;5058247;28;20112;-72
2021/06/11 04:10:48;;;;;;;8.82;6.72;;;;;;;;;;5062375;28;20013;-74
2021/06/11 04:13:17;;;;;;;7.78;5.85;;;;;;;;;;5047856;28;20053;-73
2021/06/11 04:15:44;;;;;;;7.07;5.70;;;;;;;;;;5049941;28;20490;-74
2021/06/11 04:18:11;;;;;;;8.90;5.60;;;;;;;;;;5054713;28;20066;-74
2021/06/11 04:20:37;;;;;;;7.40;6.15;;;;;;;;;;5067672;28;20033;-72
2021/06/11 04:23:05;;;;;;;8.88;6.15;;;;;;;;;;5057137;28;20486;-74
2021/06/11 04:25:32;;;;;;;6.95;5.47;;;;;;;;;;5048244;28;20028;-73
2021/06/11 04:27:58;;;;;;;6.97;5.43;;;;;;;;;;5044967;28;20069;-74
2021/06/11 04:30:23;;;;;;;6.53;5.60;;;;;;;;;;5045323;28;20030;-73
2021/06/11 04:32:48;;;;;;;7.03;5.28;;;;;;;;;;5046691;28;20029;-72
2021/06/11 04:35:14;;;;;;;6.35;5.60;;;;;;;;;;5030340;28;20289;-72
2021/06/11 04:37:39;;;;;;;9.50;5.55;;;;;;;;;;5051923;28;20463;-73
2021/06/11 04:40:05;;;;;;;6.68;5.22;;;;;;;;;;5048135;28;20104;-73
2021/06/11 04:42:32;;;;;;;6.28;5.07;;;;;;;;;;5047238;28;20021;-72
2021/06/11 04:44:57;;;;;;;6.70;5.40;;;;;;;;;;5052967;28;20025;-72
2021/06/11 04:47:23;;;;;;;7.78;5.63;;;;;;;;;;5046969;28;20111;-73
2021/06/11 04:49:48;;;;;;;6.90;5.70;;;;;;;;;;5050084;28;20035;-73
2021/06/11 04:52:13;;;;;;;7.47;5.27;;;;;;;;;;5049009;28;20415;-73
2021/06/11 04:54:38;;;;;;;6.73;5.43;;;;;;;;;;5051691;28;20262;-72
2021/06/11 04:57:04;;;;;;;7.60;5.43;;;;;;;;;;5047461;28;20277;-74
2021/06/11 04:59:29;;;;;;;6.80;5.32;;;;;;;;;;5049429;28;20028;-73
2021/06/11 05:01:54;;;;;;;7.30;5.15;;;;;;;;;;5049033;28;20088;-72
2021/06/11 05:04:19;;;;;;;10.40;5.05;;;;;;;;;;5051958;28;20431;-73
2021/06/11 05:06:44;;;;;;;6.55;5.20;;;;;;;;;;5057464;28;20051;-72
2021/06/11 05:09:10;;;;;;;6.27;4.93;;;;;;;;;;5063620;28;20016;-73
2021/06/11 05:11:35;;;;;;;6.07;5.20;;;;;;;;;;5051300;28;20340;-72
2021/06/11 05:14:00;;;;;;;6.60;4.90;;;;;;;;;;5057130;28;20014;-73
2021/06/11 05:16:26;;;;;;;6.85;4.68;;;;;;;;;;5066476;28;20834;-73
2021/06/11 05:18:51;;;;;;;5.45;4.60;;;;;;;;;;5049857;28;20380;-73
2021/06/11 05:21:16;;;;;;;6.10;4.75;;;;;;;;;;5056562;28;20396;-72
2021/06/11 05:23:41;;;;;;;7.38;5.25;;;;;;;;;;5055020;28;20021;-69
2021/06/11 05:26:07;;;;;;;5.22;4.65;;;;;;;;;;5051333;28;20108;-69
2021/06/11 05:28:32;;;;;;;8.17;4.80;;;;;;;;;;5050187;28;20306;-70
2021/06/11 05:30:57;;;;;;;6.27;5.23;;;;;;;;;;5054768;28;20867;-69
2021/06/11 05:33:23;;;;;;;6.70;5.07;;;;;;;;;;5063024;28;20287;-70
2021/06/11 05:35:48;;;;;;;6.28;5.18;;;;;;;;;;5058065;28;20840;-69
2021/06/11 05:38:14;;;;;;;6.55;5.20;;;;;;;;;;5064525;28;20039;-70
2021/06/11 05:40:40;;;;;;;7.03;5.50;;;;;;;;;;5057821;28;20047;-70
2021/06/11 05:43:05;;;;;;;9.10;6.35;;;;;;;;;;5033710;28;20021;-77
2021/06/11 05:45:31;;;;;;;6.75;5.55;;;;;;;;;;5038002;28;20040;-69
2021/06/11 05:47:57;;;;;;;7.78;5.55;;;;;;;;;;5040159;28;20511;-73
2021/06/11 05:50:22;;;;;;;7.00;5.75;;;;;;;;;;5059277;28;20781;-69
2021/06/11 05:52:47;;;;;;;7.15;5.50;;;;;;;;;;5051683;28;20116;-69
2021/06/11 05:55:14;;;;;;;6.80;5.47;;;;;;;;;;5062338;28;20025;-68
2021/06/11 05:57:40;;;;;;;7.70;6.15;;;;;;;;;;5057061;28;20297;-68
2021/06/11 06:00:07;;;;;;;7.05;5.32;;;;;;;;;;5056271;28;20021;-70
2021/06/11 06:02:32;;;;;;;6.78;5.50;;;;;;;;;;5049072;28;20055;-70
2021/06/11 06:04:57;;;;;;;7.10;5.70;;;;;;;;;;5050306;28;20036;-70
2021/06/11 06:07:22;;;;;;;6.40;5.10;;;;;;;;;;5057117;28;20029;-69
2021/06/11 06:09:48;;;;;;;8.57;5.75;;;;;;;;;;5049495;28;20275;-76
2021/06/11 06:12:13;;;;;;;5.90;5.13;;;;;;;;;;5048320;28;20084;-75
2021/06/11 06:14:38;;;;;;;8.90;5.50;;;;;;;;;;5049826;28;20021;-75
2021/06/11 06:17:04;;;;;;;5.63;4.90;;;;;;;;;;5054216;28;20032;-74
2021/06/11 06:19:29;;;;;;;6.22;4.72;;;;;;;;;;5063060;28;20013;-74
2021/06/11 06:21:54;;;;;;;7.38;5.28;;;;;;;;;;5051467;28;20535;-75
2021/06/11 06:24:19;;;;;;;6.97;5.32;;;;;;;;;;5056775;28;20057;-75
2021/06/11 06:26:45;;;;;;;6.20;5.18;;;;;;;;;;5050755;28;20043;-75
2021/06/11 06:29:10;;;;;;;5.97;5.10;;;;;;;;;;5050990;28;20021;-75
2021/06/11 06:31:35;;;;;;;6.15;4.72;;;;;;;;;;5054632;28;20653;-75
2021/06/11 06:34:01;;;;;;;8.73;5.07;;;;;;;;;;5056995;28;20506;-74
2021/06/11 06:36:26;;;;;;;6.35;4.95;;;;;;;;;;5070066;28;20325;-75
2021/06/11 06:38:52;;;;;;;6.97;4.83;;;;;;;;;;5069981;28;20027;-74
2021/06/11 06:41:17;;;;;;;7.90;4.43;;;;;;;;;;5063149;28;20768;-74
2021/06/11 06:43:43;;;;;;;6.93;4.85;;;;;;;;;;5047671;28;20028;-75
2021/06/11 06:46:08;;;;;;;6.90;4.55;;;;;;;;;;5055414;28;20044;-75
2021/06/11 06:48:34;;;;;;;5.53;4.30;;;;;;;;;;5052168;28;20104;-75
2021/06/11 06:50:59;;;;;;;5.68;4.20;;;;;;;;;;5050386;28;20024;-74
2021/06/11 06:53:25;;;;;;;5.87;3.97;;;;;;;;;;5051867;28;20049;-73
2021/06/11 06:55:50;;;;;;;5.60;4.32;;;;;;;;;;5050360;28;20048;-74
2021/06/11 06:58:15;;;;;;;5.82;4.55;;;;;;;;;;5066250;28;20020;-75
2021/06/11 07:00:40;;;;;;;5.50;4.07;;;;;;;;;;5066983;28;20021;-75
2021/06/11 07:03:06;;;;;;;6.40;4.30;;;;;;;;;;5050322;28;20298;-75
2021/06/11 07:05:32;;;;;;;5.22;3.92;;;;;;;;;;5056472;28;20040;-75
2021/06/11 07:07:58;;;;;;;6.10;4.05;;;;;;;;;;5057730;28;20035;-74
2021/06/11 07:10:23;;;;;;;8.68;4.10;;;;;;;;;;5062074;28;20441;-74
2021/06/11 07:12:48;;;;;;;4.00;3.50;;;;;;;;;;5057574;28;20028;-76
2021/06/11 07:15:13;;;;;;;6.40;3.95;;;;;;;;;;5062684;28;20020;-74
2021/06/11 07:17:39;;;;;;;5.20;3.97;;;;;;;;;;5052202;28;20556;-74
2021/06/11 07:20:05;;;;;;;6.10;4.45;;;;;;;;;;5063026;28;20066;-74
2021/06/11 07:22:30;;;;;;;6.35;4.03;;;;;;;;;;5062890;28;20143;-75
2021/06/11 07:24:56;;;;;;;6.00;3.70;;;;;;;;;;5050218;28;20051;-75
2021/06/11 07:27:21;;;;;;;5.70;3.55;;;;;;;;;;5049466;28;20029;-76
2021/06/11 07:29:47;;;;;;;4.43;3.60;;;;;;;;;;5050209;28;20021;-75
2021/06/11 07:32:14;;;;;;;5.70;3.88;;;;;;;;;;5062480;28;20268;-75
2021/06/11 07:34:39;;;;;;;5.18;3.88;;;;;;;;;;5049524;28;20521;-75
2021/06/11 07:37:04;;;;;;;5.93;3.97;;;;;;;;;;5045262;28;20025;-76
2021/06/11 07:39:30;;;;;;;5.32;4.00;;;;;;;;;;5048916;28;20075;-75
2021/06/11 07:41:55;;;;;;;4.55;3.88;;;;;;;;;;5059393;28;20027;-75
2021/06/11 07:44:21;;;;;;;4.57;3.60;;;;;;;;;;5052908;28;20131;-74
2021/06/11 07:46:46;;;;;;;4.78;3.80;;;;;;;;;;5049604;28;20041;-74
2021/06/11 07:49:13;;;;;;;4.63;3.60;;;;;;;;;;5064785;28;20048;-74
2021/06/11 07:51:38;;;;;;;5.55;4.40;;;;;;;;;;5054030;28;20020;-74
2021/06/11 07:54:03;;;;;;;7.07;3.80;;;;;;;;;;5049780;28;20021;-75
2021/06/11 07:56:28;;;;;;;7.57;3.65;;;;;;;;;;5047252;28;20067;-74
2021/06/11 07:58:53;;;;;;;5.23;3.70;;;;;;;;;;5056467;28;20514;-75
2021/06/11 08:01:19;;;;;;;4.70;3.77;;;;;;;;;;5068580;28;20345;-74
2021/06/11 08:03:44;;;;;;;5.20;3.70;;;;;;;;;;5055681;28;20607;-77
2021/06/11 08:06:09;;;;;;;4.73;3.80;;;;;;;;;;5049748;28;20513;-75
2021/06/11 08:08:34;;;;;;;6.43;3.93;;;;;;;;;;5054490;28;20268;-76
2021/06/11 08:10:59;;;;;;;6.13;4.20;;;;;;;;;;5067935;28;20258;-74
2021/06/11 08:13:25;;;;;;;5.25;4.07;;;;;;;;;;5064397;28;20266;-76
2021/06/11 08:15:50;;;;;;;6.30;4.15;;;;;;;;;;5064132;28;20027;-75
2021/06/11 08:18:15;;;;;;;4.53;3.70;;;;;;;;;;5058123;28;20028;-74
2021/06/11 08:20:40;;;;;;;4.22;3.50;;;;;;;;;;5058218;28;20264;-74
2021/06/11 08:23:06;;;;;;;4.78;3.85;;;;;;;;;;5052316;28;20112;-75
2021/06/11 08:25:32;;;;;;;5.50;4.35;;;;;;;;;;5054978;28;20020;-75
2021/06/11 08:27:58;;;;;;;5.70;3.88;;;;;;;;;;5057190;28;20033;-75
2021/06/11 08:30:24;;;;;;;6.38;4.55;;;;;;;;;;5059322;28;20349;-75
2021/06/11 08:32:49;;;;;;;4.80;3.83;;;;;;;;;;5049027;28;20040;-75
2021/06/11 08:35:14;;;;;;;5.55;4.28;;;;;;;;;;5050920;28;20040;-76
2021/06/11 08:37:40;;;;;;;6.55;4.28;;;;;;;;;;5065206;28;20329;-75
2021/06/11 08:40:05;;;;;;;5.88;4.20;;;;;;;;;;5058099;28;20070;-75
2021/06/11 08:42:31;;;;;;;5.40;3.95;;;;;;;;;;5053472;28;20024;-75
2021/06/11 08:45:01;;;;;;;5.20;3.83;;;;;;;;;;5065669;28;20461;-75
2021/06/11 08:47:27;;;;;;;4.80;3.70;;;;;;;;;;5072015;28;20552;-75
2021/06/11 08:49:52;;;;;;;6.25;3.58;;;;;;;;;;5059588;28;20024;-74
2021/06/11 08:52:18;;;;;;;5.30;3.90;;;;;;;;;;5072013;28;20113;-74
2021/06/11 08:54:43;;;;;;;6.00;3.40;;;;;;;;;;5066127;28;20016;-76
2021/06/11 08:57:11;;;;;;;11.25;4.38;;;;;;;;;;5065919;28;20045;-76
2021/06/11 08:59:37;;;;;;;4.47;3.47;;;;;;;;;;5049127;28;20044;-76
2021/06/11 09:02:02;;;;;;;5.70;3.65;;;;;;;;;;5052620;28;20016;-75
2021/06/11 09:04:47;;;;;;;4.72;3.78;;;;;;;;;;5070869;28;20483;-75
2021/06/11 09:07:19;;;;;;;5.88;3.70;;;;;;;;;;5054303;28;20036;-75
2021/06/11 09:09:48;;;;;;;5.88;4.00;;;;;;;;;;5058604;28;20025;-74
2021/06/11 09:12:29;;;;;;;5.70;3.70;;;;;;;;;;5059715;28;20491;-74
2021/06/11 09:14:55;;;;;;;6.40;3.90;;;;;;;;;;5049465;28;20463;-74
2021/06/11 09:17:32;;;;;;;6.50;3.63;;;;;;;;;;5062332;28;20032;-75
2021/06/11 09:20:00;;;;;;;4.93;3.97;;;;;;;;;;5033509;28;20053;-73
2021/06/11 09:22:35;;;;;;;5.15;3.85;;;;;;;;;;5060516;28;20020;-75
2021/06/11 09:25:20;;;;;;;5.70;3.65;;;;;;;;;;5060611;28;20807;-75
2021/06/11 09:27:59;;;;;;;4.20;3.47;;;;;;;;;;5065252;28;20021;-75
2021/06/11 09:30:29;;;;;;;4.45;3.33;;;;;;;;;;5053262;28;20025;-74
2021/06/11 09:32:56;;;;;;;7.47;3.47;;;;;;;;;;5062468;28;20044;-74
2021/06/11 09:35:27;;;;;;;7.35;4.10;;;;;;;;;;5052615;28;20017;-76
2021/06/11 09:38:04;;;;;;;4.70;3.65;;;;;;;;;;5065619;28;20027;-77
2021/06/11 09:40:31;;;;;;;7.55;3.95;;;;;;;;;;5065267;28;20087;-75
2021/06/11 09:43:00;;;;;;;4.25;3.00;;;;;;;;;;5051519;28;20033;-75
2021/06/11 09:45:25;;;;;;;5.57;3.60;;;;;;;;;;5051477;28;20021;-76
2021/06/11 09:47:51;;;;;;;5.20;3.63;;;;;;;;;;5061142;28;20085;-76
2021/06/11 09:50:28;;;;;;;5.07;3.42;;;;;;;;;;5055220;28;20116;-76
2021/06/11 09:52:58;;;;;;;5.30;4.00;;;;;;;;;;5057657;28;20025;-76
2021/06/11 09:55:30;;;;;;;8.35;3.80;;;;;;;;;;5070986;28;20028;-75
2021/06/11 09:58:03;;;;;;;6.05;3.70;;;;;;;;;;5052846;28;20021;-75
2021/06/11 10:00:32;;;;;;;6.85;3.75;;;;;;;;;;5051442;28;20491;-74
2021/06/11 10:02:58;;;;;;;5.57;3.30;;;;;;;;;;5057322;28;20048;-76
2021/06/11 10:05:23;;;;;;;6.15;3.78;;;;;;;;;;5071120;28;20025;-75
2021/06/11 10:07:49;;;;;;;5.38;3.53;;;;;;;;;;5070803;28;20033;-76
2021/06/11 10:10:14;;;;;;;5.20;3.20;;;;;;;;;;5053266;28;20021;-76
2021/06/11 10:12:39;;;;;;;5.43;3.80;;;;;;;;;;5057825;28;20013;-75
2021/06/11 10:15:05;;;;;;;5.82;3.90;;;;;;;;;;5068047;28;20078;-74
2021/06/11 10:17:30;;;;;;;4.75;3.65;;;;;;;;;;5067396;28;20044;-76
2021/06/11 10:19:55;;;;;;;6.77;3.87;;;;;;;;;;5054160;28;20074;-75
2021/06/11 10:22:20;;;;;;;5.22;3.53;;;;;;;;;;5061257;28;20266;-75
2021/06/11 10:24:46;;;;;;;5.50;4.13;;;;;;;;;;5054551;28;20028;-75
2021/06/11 10:27:12;;;;;;;7.93;4.38;;;;;;;;;;5064842;28;20059;-76
2021/06/11 10:29:39;;;;;;;5.30;4.20;;;;;;;;;;5052356;28;20142;-74
2021/06/11 10:32:04;;;;;;;7.32;5.22;;;;;;;;;;5065250;28;20514;-75
2021/06/11 10:34:48;;;;;;;7.00;4.40;;;;;;;;;;5051241;28;20037;-75
2021/06/11 10:37:33;;;;;;;6.82;4.53;;;;;;;;;;5058435;28;20080;-75
2021/06/11 10:40:14;;;;;;;6.10;4.60;;;;;;;;;;5071051;28;20109;-75
2021/06/11 10:42:39;;;;;;;6.38;4.13;;;;;;;;;;5082724;28;20043;-76
2021/06/11 10:45:05;;;;;;;4.65;3.92;;;;;;;;;;5075925;28;20005;-75
2021/06/11 10:47:33;;;;;;;5.72;3.80;;;;;;;;;;5069960;28;20016;-76
2021/06/11 10:49:58;;;;;;;5.50;3.88;;;;;;;;;;5039760;28;20021;-76
2021/06/11 10:52:30;;;;;;;5.68;3.55;;;;;;;;;;5071315;28;20120;-76
2021/06/11 10:54:57;;;;;;;6.60;3.70;;;;;;;;;;5046836;28;20029;-76
2021/06/11 10:57:22;;;;;;;5.75;3.92;;;;;;;;;;5035738;28;20033;-76
2021/06/11 10:59:48;;;;;;;6.00;3.88;;;;;;;;;;5042153;28;20060;-74
2021/06/11 11:02:17;;;;;;;5.43;3.30;;;;;;;;;;5035527;28;20017;-76
2021/06/11 11:04:48;;;;;;;5.30;3.72;;;;;;;;;;5045178;28;20021;-75
2021/06/11 11:07:26;;;;;;;7.30;4.13;;;;;;;;;;5043879;28;20033;-75
2021/06/11 11:09:52;;;;;;;5.28;4.28;;;;;;;;;;5047767;28;20044;-75
2021/06/11 11:12:17;;;;;;;7.00;4.43;;;;;;;;;;5041801;28;20056;-75
2021/06/11 11:14:43;;;;;;;5.85;4.30;;;;;;;;;;5049247;28;20021;-76
2021/06/11 11:17:10;;;;;;;5.53;4.25;;;;;;;;;;5047883;28;20013;-76
2021/06/11 11:19:45;;;;;;;5.05;4.32;;;;;;;;;;5044151;28;20017;-77
2021/06/11 11:22:24;;;;;;;6.10;3.95;;;;;;;;;;5043357;28;20090;-76
2021/06/11 11:24:49;;;;;;;5.18;3.95;;;;;;;;;;5042706;28;20051;-76
2021/06/11 11:27:14;;;;;;;5.22;4.40;;;;;;;;;;5047665;28;20063;-75
2021/06/11 11:29:39;;;;;;;6.93;4.17;;;;;;;;;;5036595;28;20534;-75
2021/06/11 11:32:05;;;;;;;6.47;3.77;;;;;;;;;;5043718;28;20343;-77
2021/06/11 11:34:30;;;;;;;3.97;3.50;;;;;;;;;;5039934;28;20272;-76
2021/06/11 11:36:55;;;;;;;6.03;4.55;;;;;;;;;;5044195;28;20033;-76
2021/06/11 11:39:20;;;;;;;3.87;3.07;;;;;;;;;;5063112;28;20430;-76
2021/06/11 11:41:48;;;;;;;4.87;3.43;;;;;;;;;;5050125;28;20336;-75
2021/06/11 11:44:13;;;;;;;4.38;3.42;;;;;;;;;;5055836;28;20342;-77
2021/06/11 11:46:38;;;;;;;4.90;3.53;;;;;;;;;;5054823;28;20127;-76
2021/06/11 11:49:03;;;;;;;4.07;3.50;;;;;;;;;;5057497;28;20289;-74
2021/06/11 11:51:28;;;;;;;5.17;3.70;;;;;;;;;;5066846;28;20784;-75
2021/06/11 11:53:53;;;;;;;5.17;3.97;;;;;;;;;;5039367;28;20264;-75
2021/06/11 11:56:19;;;;;;;5.90;3.63;;;;;;;;;;5040651;28;21105;-75
2021/06/11 11:58:44;;;;;;;7.77;3.47;;;;;;;;;;5050559;28;20336;-77
2021/06/11 12:01:10;;;;;;;4.03;3.10;;;;;;;;;;5051883;28;20287;-76
2021/06/11 12:03:35;;;;;;;4.43;3.10;;;;;;;;;;5053738;28;20028;-76
2021/06/11 12:06:01;;;;;;;4.22;3.22;;;;;;;;;;5068836;28;20012;-71
2021/06/11 12:08:26;;;;;;;5.10;3.55;;;;;;;;;;5052016;28;20041;-77
2021/06/11 12:10:51;;;;;;;3.70;3.20;;;;;;;;;;5063787;28;20613;-75
2021/06/11 12:13:17;;;;;;;4.27;3.03;;;;;;;;;;5055571;28;20259;-75
2021/06/11 12:15:42;;;;;;;4.75;2.97;;;;;;;;;;5069052;28;20247;-77
2021/06/11 12:18:08;;;;;;;8.07;3.40;;;;;;;;;;5061853;28;20371;-78
2021/06/11 12:20:33;;;;;;;3.22;2.67;;;;;;;;;;5049319;28;20417;-77
2021/06/11 12:22:59;;;;;;;3.50;3.00;;;;;;;;;;5062141;28;20021;-74
2021/06/11 12:25:24;;;;;;;5.72;3.40;;;;;;;;;;5058264;28;20013;-76
2021/06/11 12:27:50;;;;;;;5.55;3.50;;;;;;;;;;5049620;28;20389;-76
2021/06/11 12:30:15;;;;;;;3.42;2.90;;;;;;;;;;5032580;28;20025;-72
2021/06/11 12:32:41;;;;;;;4.18;3.35;;;;;;;;;;5052951;28;20134;-76
2021/06/11 12:35:06;;;;;;;3.83;2.97;;;;;;;;;;5055743;28;20028;-77
2021/06/11 12:37:31;;;;;;;4.53;3.20;;;;;;;;;;5058182;28;20044;-70
2021/06/11 12:39:56;;;;;;;5.43;2.87;;;;;;;;;;5049038;28;20480;-74
2021/06/11 12:42:28;;;;;;;3.22;2.92;;;;;;;;;;5030148;28;20346;-74
2021/06/11 12:44:55;;;;;;;4.00;3.00;;;;;;;;;;5046724;28;20021;-76
2021/06/11 12:47:20;;;;;;;3.45;2.80;;;;;;;;;;5066185;28;20032;-77
2021/06/11 12:49:46;;;;;;;5.87;2.60;;;;;;;;;;5050011;28;20017;-76
2021/06/11 12:52:11;;;;;;;3.23;2.50;;;;;;;;;;5045911;28;20823;-76
2021/06/11 12:54:36;;;;;;;3.90;2.90;;;;;;;;;;5050300;28;20283;-76
2021/06/11 12:57:02;;;;;;;2.97;2.50;;;;;;;;;;5056323;28;20086;-76
2021/06/11 12:59:27;;;;;;;5.65;3.10;;;;;;;;;;5042944;28;20267;-76
2021/06/11 13:01:52;;;;;;;3.70;2.75;;;;;;;;;;5039071;28;20021;-74
2021/06/11 13:04:18;;;;;;;3.50;2.57;;;;;;;;;;5041494;28;20421;-73
2021/06/11 13:06:43;;;;;;;5.07;3.10;;;;;;;;;;5041726;28;20031;-76
2021/06/11 13:09:08;;;;;;;6.25;3.05;;;;;;;;;;5041023;28;20264;-77
2021/06/11 13:11:34;;;;;;;4.43;2.97;;;;;;;;;;5044068;28;20427;-75
2021/06/11 13:13:59;;;;;;;4.63;3.10;;;;;;;;;;5044870;28;20017;-75
2021/06/11 13:16:24;;;;;;;4.90;3.13;;;;;;;;;;5050122;28;20051;-72
2021/06/11 13:18:50;;;;;;;3.83;2.70;;;;;;;;;;5042588;28;20068;-77
2021/06/11 13:21:15;;;;;;;5.07;2.83;;;;;;;;;;5051349;28;20671;-75
2021/06/11 13:23:40;;;;;;;4.07;2.60;;;;;;;;;;5043442;28;20024;-75
2021/06/11 13:26:05;;;;;;;3.80;2.90;;;;;;;;;;5048107;28;20388;-75
2021/06/11 13:28:31;;;;;;;3.80;2.77;;;;;;;;;;5047948;28;20302;-77
2021/06/11 13:30:56;;;;;;;3.03;2.50;;;;;;;;;;5063432;28;20308;-75
2021/06/11 13:33:21;;;;;;;4.33;2.67;;;;;;;;;;5066464;28;20295;-75
2021/06/11 13:35:48;;;;;;;4.85;2.35;;;;;;;;;;5060303;28;20036;-75
2021/06/11 13:38:13;;;;;;;4.15;2.45;;;;;;;;;;5053698;28;20384;-75
2021/06/11 13:40:39;;;;;;;4.40;2.63;;;;;;;;;;5058933;28;20041;-75
2021/06/11 13:43:04;;;;;;;3.35;2.60;;;;;;;;;;5051916;28;20040;-75
2021/06/11 13:45:29;;;;;;;3.28;2.70;;;;;;;;;;5063623;28;20016;-77
2021/06/11 13:47:55;;;;;;;3.28;2.78;;;;;;;;;;5062022;28;20036;-76
2021/06/11 13:50:22;;;;;;;2.67;2.42;;;;;;;;;;5062049;28;20027;-76
2021/06/11 13:52:47;;;;;;;4.97;3.00;;;;;;;;;;5057440;28;20088;-75
2021/06/11 13:55:13;;;;;;;3.65;2.63;;;;;;;;;;5067110;28;20032;-77
2021/06/11 13:57:38;;;;;;;2.42;2.10;;;;;;;;;;5028319;28;20032;-75
2021/06/11 14:00:05;;;;;;;4.72;2.20;;;;;;;;;;5058322;28;20036;-76
2021/06/11 14:02:31;;;;;;;2.70;2.28;;;;;;;;;;5053104;28;20465;-77
2021/06/11 14:04:56;;;;;;;7.70;2.78;;;;;;;;;;5052068;28;20044;-77
2021/06/11 14:07:21;;;;;;;3.17;2.70;;;;;;;;;;5049352;28;20527;-74
2021/06/11 14:09:46;;;;;;;4.13;2.30;;;;;;;;;;5055741;28;20267;-76
2021/06/11 14:12:11;;;;;;;2.60;2.20;;;;;;;;;;5058315;28;20279;-77
2021/06/11 14:14:36;;;;;;;3.13;2.38;;;;;;;;;;5050852;28;20124;-78
2021/06/11 14:17:02;;;;;;;2.83;2.37;;;;;;;;;;5045349;28;20472;-75
2021/06/11 14:19:27;;;;;;;2.78;2.35;;;;;;;;;;5052160;28;20016;-74
2021/06/11 14:21:52;;;;;;;2.97;2.60;;;;;;;;;;5047511;28;20228;-77
2021/06/11 14:24:17;;;;;;;3.47;2.75;;;;;;;;;;5055463;28;20021;-78
2021/06/11 14:26:42;;;;;;;2.97;2.57;;;;;;;;;;5031584;28;20024;-77
2021/06/11 14:29:08;;;;;;;6.73;2.70;;;;;;;;;;5042229;28;20311;-74
2021/06/11 14:31:33;;;;;;;3.58;2.40;;;;;;;;;;5031382;28;20795;-76
2021/06/11 14:33:58;;;;;;;3.85;2.50;;;;;;;;;;5055264;28;20044;-77
2021/06/11 14:36:23;;;;;;;6.07;2.83;;;;;;;;;;5068628;28;20032;-76
2021/06/11 14:38:49;;;;;;;4.32;2.67;;;;;;;;;;5047047;28;20028;-76